sensor_id;sensor_type;location;lat;lon;timestamp;P1;durP1;ratioP1;P2;durP2;ratioP2
69542;SDS011;56762;49.494;11.768;2023-06-10T00:01:08;6.13;;;3.90;;
69542;SDS011;56762;49.494;11.768;2023-06-10T00:03:36;7.50;;;4.50;;
69542;SDS011;56762;49.494;11.768;2023-06-10T00:06:04;6.57;;;4.65;;
69542;SDS011;56762;49.494;11.768;2023-06-10T00:08:32;7.53;;;5.03;;
69542;SDS011;56762;49.494;11.768;2023-06-10T00:11:00;8.27;;;5.07;;
69542;SDS011;56762;49.494;11.768;2023-06-10T00:13:29;7.35;;;4.90;;
69542;SDS011;56762;49.494;11.768;2023-06-10T00:15:57;7.63;;;4.90;;
69542;SDS011;56762;49.494;11.768;2023-06-10T00:18:24;7.05;;;4.68;;
69542;SDS011;56762;49.494;11.768;2023-06-10T00:20:53;6.50;;;5.05;;
69542;SDS011;56762;49.494;11.768;2023-06-10T00:23:21;7.53;;;4.57;;
69542;SDS011;56762;49.494;11.768;2023-06-10T00:25:51;7.47;;;5.03;;
69542;SDS011;56762;49.494;11.768;2023-06-10T00:28:19;6.20;;;4.90;;
69542;SDS011;56762;49.494;11.768;2023-06-10T00:30:48;6.18;;;4.60;;
69542;SDS011;56762;49.494;11.768;2023-06-10T00:33:16;8.95;;;5.32;;
69542;SDS011;56762;49.494;11.768;2023-06-10T00:35:43;7.43;;;5.25;;
69542;SDS011;56762;49.494;11.768;2023-06-10T00:38:12;8.30;;;5.38;;
69542;SDS011;56762;49.494;11.768;2023-06-10T00:40:41;8.90;;;5.40;;
69542;SDS011;56762;49.494;11.768;2023-06-10T00:43:08;7.45;;;4.95;;
69542;SDS011;56762;49.494;11.768;2023-06-10T00:45:36;8.63;;;5.43;;
69542;SDS011;56762;49.494;11.768;2023-06-10T00:48:06;7.75;;;4.85;;
69542;SDS011;56762;49.494;11.768;2023-06-10T00:50:34;6.50;;;4.35;;
69542;SDS011;56762;49.494;11.768;2023-06-10T00:53:05;7.43;;;4.60;;
69542;SDS011;56762;49.494;11.768;2023-06-10T00:55:33;6.43;;;4.40;;
69542;SDS011;56762;49.494;11.768;2023-06-10T00:58:02;7.28;;;4.78;;
69542;SDS011;56762;49.494;11.768;2023-06-10T01:00:30;6.30;;;4.18;;
69542;SDS011;56762;49.494;11.768;2023-06-10T01:02:58;7.05;;;4.40;;
69542;SDS011;56762;49.494;11.768;2023-06-10T01:05:27;5.97;;;3.97;;
69542;SDS011;56762;49.494;11.768;2023-06-10T01:07:56;6.88;;;4.03;;
69542;SDS011;56762;49.494;11.768;2023-06-10T01:10:32;7.22;;;4.10;;
69542;SDS011;56762;49.494;11.768;2023-06-10T01:13:03;6.53;;;4.15;;
69542;SDS011;56762;49.494;11.768;2023-06-10T01:15:35;5.93;;;4.00;;
69542;SDS011;56762;49.494;11.768;2023-06-10T01:18:04;6.37;;;4.20;;
69542;SDS011;56762;49.494;11.768;2023-06-10T01:20:37;5.32;;;3.47;;
69542;SDS011;56762;49.494;11.768;2023-06-10T01:23:07;6.03;;;3.97;;
69542;SDS011;56762;49.494;11.768;2023-06-10T01:25:38;6.25;;;3.88;;
69542;SDS011;56762;49.494;11.768;2023-06-10T01:28:12;5.80;;;4.13;;
69542;SDS011;56762;49.494;11.768;2023-06-10T01:30:43;6.40;;;4.20;;
69542;SDS011;56762;49.494;11.768;2023-06-10T01:33:17;7.15;;;4.10;;
69542;SDS011;56762;49.494;11.768;2023-06-10T01:35:51;6.78;;;4.35;;
69542;SDS011;56762;49.494;11.768;2023-06-10T01:38:21;5.97;;;4.00;;
69542;SDS011;56762;49.494;11.768;2023-06-10T01:40:52;6.75;;;4.18;;
69542;SDS011;56762;49.494;11.768;2023-06-10T01:43:22;7.53;;;4.53;;
69542;SDS011;56762;49.494;11.768;2023-06-10T01:45:50;5.78;;;4.07;;
69542;SDS011;56762;49.494;11.768;2023-06-10T01:48:18;6.82;;;4.22;;
69542;SDS011;56762;49.494;11.768;2023-06-10T01:50:46;7.50;;;4.03;;
69542;SDS011;56762;49.494;11.768;2023-06-10T01:53:13;6.60;;;3.95;;
69542;SDS011;56762;49.494;11.768;2023-06-10T01:55:42;6.83;;;4.17;;
69542;SDS011;56762;49.494;11.768;2023-06-10T01:58:10;6.60;;;4.03;;
69542;SDS011;56762;49.494;11.768;2023-06-10T02:00:38;5.72;;;4.10;;
69542;SDS011;56762;49.494;11.768;2023-06-10T02:03:06;5.60;;;3.97;;
69542;SDS011;56762;49.494;11.768;2023-06-10T02:05:34;7.18;;;3.70;;
69542;SDS011;56762;49.494;11.768;2023-06-10T02:08:01;6.50;;;4.20;;
69542;SDS011;56762;49.494;11.768;2023-06-10T02:10:29;6.93;;;3.65;;
69542;SDS011;56762;49.494;11.768;2023-06-10T02:12:59;6.63;;;4.10;;
69542;SDS011;56762;49.494;11.768;2023-06-10T02:15:27;6.32;;;4.10;;
69542;SDS011;56762;49.494;11.768;2023-06-10T02:17:55;6.68;;;4.00;;
69542;SDS011;56762;49.494;11.768;2023-06-10T02:20:24;5.87;;;3.77;;
69542;SDS011;56762;49.494;11.768;2023-06-10T02:22:52;7.15;;;4.15;;
69542;SDS011;56762;49.494;11.768;2023-06-10T02:25:20;6.63;;;4.30;;
69542;SDS011;56762;49.494;11.768;2023-06-10T02:27:47;6.15;;;4.00;;
69542;SDS011;56762;49.494;11.768;2023-06-10T02:30:17;5.75;;;3.83;;
69542;SDS011;56762;49.494;11.768;2023-06-10T02:32:45;6.47;;;4.00;;
69542;SDS011;56762;49.494;11.768;2023-06-10T02:35:14;6.30;;;4.43;;
69542;SDS011;56762;49.494;11.768;2023-06-10T02:37:43;7.32;;;3.88;;
69542;SDS011;56762;49.494;11.768;2023-06-10T02:40:11;6.78;;;4.18;;
69542;SDS011;56762;49.494;11.768;2023-06-10T02:42:39;5.75;;;3.97;;
69542;SDS011;56762;49.494;11.768;2023-06-10T02:45:07;6.50;;;3.57;;
69542;SDS011;56762;49.494;11.768;2023-06-10T02:47:37;7.13;;;4.30;;
69542;SDS011;56762;49.494;11.768;2023-06-10T02:50:06;6.20;;;4.28;;
69542;SDS011;56762;49.494;11.768;2023-06-10T02:52:34;6.30;;;4.18;;
69542;SDS011;56762;49.494;11.768;2023-06-10T02:55:02;6.53;;;4.30;;
69542;SDS011;56762;49.494;11.768;2023-06-10T02:57:32;5.90;;;4.13;;
69542;SDS011;56762;49.494;11.768;2023-06-10T03:00:00;6.70;;;4.10;;
69542;SDS011;56762;49.494;11.768;2023-06-10T03:02:36;7.07;;;4.07;;
69542;SDS011;56762;49.494;11.768;2023-06-10T03:05:06;6.85;;;3.97;;
69542;SDS011;56762;49.494;11.768;2023-06-10T03:07:37;7.18;;;4.30;;
69542;SDS011;56762;49.494;11.768;2023-06-10T03:10:05;7.47;;;4.10;;
69542;SDS011;56762;49.494;11.768;2023-06-10T03:12:34;6.93;;;4.55;;
69542;SDS011;56762;49.494;11.768;2023-06-10T03:15:02;6.80;;;4.35;;
69542;SDS011;56762;49.494;11.768;2023-06-10T03:17:30;7.25;;;4.35;;
69542;SDS011;56762;49.494;11.768;2023-06-10T03:19:59;6.95;;;4.53;;
69542;SDS011;56762;49.494;11.768;2023-06-10T03:22:27;7.23;;;4.50;;
69542;SDS011;56762;49.494;11.768;2023-06-10T03:24:55;6.20;;;4.32;;
69542;SDS011;56762;49.494;11.768;2023-06-10T03:27:23;7.80;;;4.80;;
69542;SDS011;56762;49.494;11.768;2023-06-10T03:29:55;7.20;;;4.50;;
69542;SDS011;56762;49.494;11.768;2023-06-10T03:32:23;7.53;;;4.82;;
69542;SDS011;56762;49.494;11.768;2023-06-10T03:34:51;7.00;;;4.70;;
69542;SDS011;56762;49.494;11.768;2023-06-10T03:37:25;7.40;;;4.22;;
69542;SDS011;56762;49.494;11.768;2023-06-10T03:39:53;6.03;;;4.18;;
69542;SDS011;56762;49.494;11.768;2023-06-10T03:42:21;7.22;;;4.38;;
69542;SDS011;56762;49.494;11.768;2023-06-10T03:44:49;6.55;;;4.63;;
69542;SDS011;56762;49.494;11.768;2023-06-10T03:47:17;6.80;;;3.83;;
69542;SDS011;56762;49.494;11.768;2023-06-10T03:49:45;7.20;;;4.93;;
69542;SDS011;56762;49.494;11.768;2023-06-10T03:52:13;7.57;;;5.10;;
69542;SDS011;56762;49.494;11.768;2023-06-10T03:54:42;7.13;;;4.25;;
69542;SDS011;56762;49.494;11.768;2023-06-10T03:57:10;6.28;;;4.07;;
69542;SDS011;56762;49.494;11.768;2023-06-10T03:59:38;6.70;;;4.47;;
69542;SDS011;56762;49.494;11.768;2023-06-10T04:02:06;7.45;;;4.63;;
69542;SDS011;56762;49.494;11.768;2023-06-10T04:04:35;6.93;;;4.90;;
69542;SDS011;56762;49.494;11.768;2023-06-10T04:07:04;6.90;;;4.57;;
69542;SDS011;56762;49.494;11.768;2023-06-10T04:09:32;7.85;;;4.97;;
69542;SDS011;56762;49.494;11.768;2023-06-10T04:12:01;8.23;;;5.13;;
69542;SDS011;56762;49.494;11.768;2023-06-10T04:14:32;7.70;;;4.72;;
69542;SDS011;56762;49.494;11.768;2023-06-10T04:17:00;7.20;;;4.20;;
69542;SDS011;56762;49.494;11.768;2023-06-10T04:19:28;7.22;;;4.90;;
69542;SDS011;56762;49.494;11.768;2023-06-10T04:21:57;7.57;;;4.68;;
69542;SDS011;56762;49.494;11.768;2023-06-10T04:24:25;6.73;;;4.23;;
69542;SDS011;56762;49.494;11.768;2023-06-10T04:26:53;6.13;;;4.22;;
69542;SDS011;56762;49.494;11.768;2023-06-10T04:29:22;7.18;;;4.60;;
69542;SDS011;56762;49.494;11.768;2023-06-10T04:31:50;6.18;;;4.43;;
69542;SDS011;56762;49.494;11.768;2023-06-10T04:34:19;8.40;;;4.80;;
69542;SDS011;56762;49.494;11.768;2023-06-10T04:36:47;6.27;;;4.10;;
69542;SDS011;56762;49.494;11.768;2023-06-10T04:39:17;6.38;;;4.10;;
69542;SDS011;56762;49.494;11.768;2023-06-10T04:41:46;6.57;;;4.75;;
69542;SDS011;56762;49.494;11.768;2023-06-10T04:44:14;7.80;;;4.32;;
69542;SDS011;56762;49.494;11.768;2023-06-10T04:46:43;6.85;;;4.35;;
69542;SDS011;56762;49.494;11.768;2023-06-10T04:49:12;6.03;;;4.23;;
69542;SDS011;56762;49.494;11.768;2023-06-10T04:51:40;9.02;;;4.30;;
69542;SDS011;56762;49.494;11.768;2023-06-10T04:54:09;6.70;;;4.20;;
69542;SDS011;56762;49.494;11.768;2023-06-10T04:56:37;6.10;;;4.25;;
69542;SDS011;56762;49.494;11.768;2023-06-10T04:59:05;7.88;;;4.53;;
69542;SDS011;56762;49.494;11.768;2023-06-10T05:01:33;8.43;;;5.13;;
69542;SDS011;56762;49.494;11.768;2023-06-10T05:04:02;8.25;;;4.65;;
69542;SDS011;56762;49.494;11.768;2023-06-10T05:06:30;6.70;;;4.32;;
69542;SDS011;56762;49.494;11.768;2023-06-10T05:08:59;8.00;;;4.50;;
69542;SDS011;56762;49.494;11.768;2023-06-10T05:11:27;5.97;;;4.28;;
69542;SDS011;56762;49.494;11.768;2023-06-10T05:13:55;6.27;;;4.37;;
69542;SDS011;56762;49.494;11.768;2023-06-10T05:16:22;8.27;;;5.28;;
69542;SDS011;56762;49.494;11.768;2023-06-10T05:18:50;7.22;;;4.93;;
69542;SDS011;56762;49.494;11.768;2023-06-10T05:21:19;7.63;;;5.25;;
69542;SDS011;56762;49.494;11.768;2023-06-10T05:23:47;7.28;;;5.10;;
69542;SDS011;56762;49.494;11.768;2023-06-10T05:26:15;6.47;;;4.30;;
69542;SDS011;56762;49.494;11.768;2023-06-10T05:28:44;9.35;;;5.60;;
69542;SDS011;56762;49.494;11.768;2023-06-10T05:31:11;9.55;;;6.10;;
69542;SDS011;56762;49.494;11.768;2023-06-10T05:33:39;7.57;;;5.32;;
69542;SDS011;56762;49.494;11.768;2023-06-10T05:36:07;7.57;;;5.22;;
69542;SDS011;56762;49.494;11.768;2023-06-10T05:38:37;8.03;;;5.57;;
69542;SDS011;56762;49.494;11.768;2023-06-10T05:41:04;8.32;;;5.22;;
69542;SDS011;56762;49.494;11.768;2023-06-10T05:43:32;7.45;;;4.93;;
69542;SDS011;56762;49.494;11.768;2023-06-10T05:46:00;7.22;;;4.63;;
69542;SDS011;56762;49.494;11.768;2023-06-10T05:48:29;7.60;;;5.22;;
69542;SDS011;56762;49.494;11.768;2023-06-10T05:50:56;7.37;;;5.00;;
69542;SDS011;56762;49.494;11.768;2023-06-10T05:53:24;6.72;;;5.32;;
69542;SDS011;56762;49.494;11.768;2023-06-10T05:55:53;7.57;;;5.25;;
69542;SDS011;56762;49.494;11.768;2023-06-10T05:58:23;7.22;;;5.10;;
69542;SDS011;56762;49.494;11.768;2023-06-10T06:00:51;7.75;;;4.70;;
69542;SDS011;56762;49.494;11.768;2023-06-10T06:03:22;7.27;;;4.83;;
69542;SDS011;56762;49.494;11.768;2023-06-10T06:05:50;6.65;;;5.03;;
69542;SDS011;56762;49.494;11.768;2023-06-10T06:08:17;6.68;;;5.00;;
69542;SDS011;56762;49.494;11.768;2023-06-10T06:10:46;6.85;;;4.40;;
69542;SDS011;56762;49.494;11.768;2023-06-10T06:13:15;6.88;;;4.85;;
69542;SDS011;56762;49.494;11.768;2023-06-10T06:15:44;6.77;;;4.90;;
69542;SDS011;56762;49.494;11.768;2023-06-10T06:18:12;6.82;;;4.95;;
69542;SDS011;56762;49.494;11.768;2023-06-10T06:20:40;7.55;;;4.93;;
69542;SDS011;56762;49.494;11.768;2023-06-10T06:23:08;8.18;;;5.60;;
69542;SDS011;56762;49.494;11.768;2023-06-10T06:25:36;7.25;;;4.85;;
69542;SDS011;56762;49.494;11.768;2023-06-10T06:28:05;7.50;;;5.27;;
69542;SDS011;56762;49.494;11.768;2023-06-10T06:30:34;6.38;;;4.93;;
69542;SDS011;56762;49.494;11.768;2023-06-10T06:33:02;8.77;;;5.05;;
69542;SDS011;56762;49.494;11.768;2023-06-10T06:35:30;6.30;;;5.13;;
69542;SDS011;56762;49.494;11.768;2023-06-10T06:37:59;8.75;;;5.15;;
69542;SDS011;56762;49.494;11.768;2023-06-10T06:40:28;6.50;;;4.73;;
69542;SDS011;56762;49.494;11.768;2023-06-10T06:42:55;6.65;;;4.75;;
69542;SDS011;56762;49.494;11.768;2023-06-10T06:45:23;9.00;;;5.80;;
69542;SDS011;56762;49.494;11.768;2023-06-10T06:47:53;8.27;;;5.57;;
69542;SDS011;56762;49.494;11.768;2023-06-10T06:50:22;7.82;;;5.07;;
69542;SDS011;56762;49.494;11.768;2023-06-10T06:52:50;7.03;;;5.30;;
69542;SDS011;56762;49.494;11.768;2023-06-10T06:55:17;5.90;;;4.00;;
69542;SDS011;56762;49.494;11.768;2023-06-10T06:57:45;7.75;;;5.07;;
69542;SDS011;56762;49.494;11.768;2023-06-10T07:00:13;6.63;;;4.82;;
69542;SDS011;56762;49.494;11.768;2023-06-10T07:02:42;7.43;;;4.95;;
69542;SDS011;56762;49.494;11.768;2023-06-10T07:05:11;7.50;;;4.90;;
69542;SDS011;56762;49.494;11.768;2023-06-10T07:07:39;7.63;;;4.55;;
69542;SDS011;56762;49.494;11.768;2023-06-10T07:10:07;5.85;;;4.72;;
69542;SDS011;56762;49.494;11.768;2023-06-10T07:12:36;7.18;;;4.63;;
69542;SDS011;56762;49.494;11.768;2023-06-10T07:15:04;5.85;;;4.70;;
69542;SDS011;56762;49.494;11.768;2023-06-10T07:17:32;6.53;;;4.90;;
69542;SDS011;56762;49.494;11.768;2023-06-10T07:20:01;6.65;;;4.82;;
69542;SDS011;56762;49.494;11.768;2023-06-10T07:22:31;6.40;;;4.78;;
69542;SDS011;56762;49.494;11.768;2023-06-10T07:24:59;5.35;;;4.10;;
69542;SDS011;56762;49.494;11.768;2023-06-10T07:27:26;5.75;;;4.32;;
69542;SDS011;56762;49.494;11.768;2023-06-10T07:29:54;6.13;;;4.33;;
69542;SDS011;56762;49.494;11.768;2023-06-10T07:32:22;7.60;;;4.47;;
69542;SDS011;56762;49.494;11.768;2023-06-10T07:34:50;5.32;;;4.10;;
69542;SDS011;56762;49.494;11.768;2023-06-10T07:37:19;6.32;;;4.40;;
69542;SDS011;56762;49.494;11.768;2023-06-10T07:39:48;6.03;;;4.25;;
69542;SDS011;56762;49.494;11.768;2023-06-10T07:42:17;6.10;;;4.17;;
69542;SDS011;56762;49.494;11.768;2023-06-10T07:44:45;6.30;;;4.40;;
69542;SDS011;56762;49.494;11.768;2023-06-10T07:47:14;6.53;;;4.40;;
69542;SDS011;56762;49.494;11.768;2023-06-10T07:49:42;5.43;;;4.28;;
69542;SDS011;56762;49.494;11.768;2023-06-10T07:52:11;5.93;;;4.15;;
69542;SDS011;56762;49.494;11.768;2023-06-10T07:54:39;5.30;;;4.00;;
69542;SDS011;56762;49.494;11.768;2023-06-10T07:57:08;5.65;;;3.97;;
69542;SDS011;56762;49.494;11.768;2023-06-10T07:59:37;5.60;;;4.05;;
69542;SDS011;56762;49.494;11.768;2023-06-10T08:02:05;5.47;;;3.92;;
69542;SDS011;56762;49.494;11.768;2023-06-10T08:04:33;5.88;;;3.78;;
69542;SDS011;56762;49.494;11.768;2023-06-10T08:07:02;5.07;;;3.93;;
69542;SDS011;56762;49.494;11.768;2023-06-10T08:09:30;5.68;;;4.07;;
69542;SDS011;56762;49.494;11.768;2023-06-10T08:11:58;4.57;;;3.42;;
69542;SDS011;56762;49.494;11.768;2023-06-10T08:14:28;7.00;;;4.15;;
69542;SDS011;56762;49.494;11.768;2023-06-10T08:16:57;4.90;;;3.90;;
69542;SDS011;56762;49.494;11.768;2023-06-10T08:19:25;6.03;;;4.10;;
69542;SDS011;56762;49.494;11.768;2023-06-10T08:21:53;5.50;;;3.65;;
69542;SDS011;56762;49.494;11.768;2023-06-10T08:24:21;5.13;;;4.07;;
69542;SDS011;56762;49.494;11.768;2023-06-10T08:26:50;5.65;;;4.20;;
69542;SDS011;56762;49.494;11.768;2023-06-10T08:29:18;5.40;;;4.18;;
69542;SDS011;56762;49.494;11.768;2023-06-10T08:31:47;6.10;;;4.90;;
69542;SDS011;56762;49.494;11.768;2023-06-10T08:34:15;5.57;;;4.00;;
69542;SDS011;56762;49.494;11.768;2023-06-10T08:36:44;4.97;;;3.97;;
69542;SDS011;56762;49.494;11.768;2023-06-10T08:39:12;5.45;;;4.28;;
69542;SDS011;56762;49.494;11.768;2023-06-10T08:41:41;6.03;;;4.30;;
69542;SDS011;56762;49.494;11.768;2023-06-10T08:44:12;6.53;;;4.70;;
69542;SDS011;56762;49.494;11.768;2023-06-10T08:46:45;6.50;;;4.78;;
69542;SDS011;56762;49.494;11.768;2023-06-10T08:49:17;5.32;;;4.00;;
69542;SDS011;56762;49.494;11.768;2023-06-10T08:51:48;4.65;;;3.67;;
69542;SDS011;56762;49.494;11.768;2023-06-10T08:54:20;5.32;;;3.88;;
69542;SDS011;56762;49.494;11.768;2023-06-10T08:56:50;6.53;;;4.27;;
69542;SDS011;56762;49.494;11.768;2023-06-10T08:59:19;5.78;;;3.83;;
69542;SDS011;56762;49.494;11.768;2023-06-10T09:01:50;5.05;;;4.13;;
69542;SDS011;56762;49.494;11.768;2023-06-10T09:04:20;5.75;;;4.35;;
69542;SDS011;56762;49.494;11.768;2023-06-10T09:06:49;6.35;;;4.45;;
69542;SDS011;56762;49.494;11.768;2023-06-10T09:09:18;6.87;;;4.43;;
69542;SDS011;56762;49.494;11.768;2023-06-10T09:11:47;5.68;;;4.22;;
69542;SDS011;56762;49.494;11.768;2023-06-10T09:14:18;6.47;;;4.68;;
69542;SDS011;56762;49.494;11.768;2023-06-10T09:16:46;5.60;;;4.07;;
69542;SDS011;56762;49.494;11.768;2023-06-10T09:19:15;5.07;;;3.72;;
69542;SDS011;56762;49.494;11.768;2023-06-10T09:21:47;5.60;;;4.00;;
69542;SDS011;56762;49.494;11.768;2023-06-10T09:24:19;5.35;;;4.07;;
69542;SDS011;56762;49.494;11.768;2023-06-10T09:26:49;5.28;;;3.67;;
69542;SDS011;56762;49.494;11.768;2023-06-10T09:29:18;4.20;;;3.40;;
69542;SDS011;56762;49.494;11.768;2023-06-10T09:31:48;5.80;;;4.20;;
69542;SDS011;56762;49.494;11.768;2023-06-10T09:34:16;4.90;;;3.10;;
69542;SDS011;56762;49.494;11.768;2023-06-10T09:36:52;5.63;;;3.40;;
69542;SDS011;56762;49.494;11.768;2023-06-10T09:39:23;4.40;;;3.10;;
69542;SDS011;56762;49.494;11.768;2023-06-10T09:41:51;4.78;;;3.10;;
69542;SDS011;56762;49.494;11.768;2023-06-10T09:44:20;5.10;;;3.22;;
69542;SDS011;56762;49.494;11.768;2023-06-10T09:46:50;4.33;;;2.90;;
69542;SDS011;56762;49.494;11.768;2023-06-10T09:49:21;5.93;;;3.28;;
69542;SDS011;56762;49.494;11.768;2023-06-10T09:51:49;4.28;;;3.08;;
69542;SDS011;56762;49.494;11.768;2023-06-10T09:54:20;6.30;;;3.03;;
69542;SDS011;56762;49.494;11.768;2023-06-10T09:56:48;4.90;;;3.13;;
69542;SDS011;56762;49.494;11.768;2023-06-10T09:59:27;4.07;;;2.80;;
69542;SDS011;56762;49.494;11.768;2023-06-10T10:01:58;4.05;;;2.95;;
69542;SDS011;56762;49.494;11.768;2023-06-10T10:04:27;4.07;;;3.30;;
69542;SDS011;56762;49.494;11.768;2023-06-10T10:06:55;4.20;;;3.10;;
69542;SDS011;56762;49.494;11.768;2023-06-10T10:09:27;3.55;;;2.83;;
69542;SDS011;56762;49.494;11.768;2023-06-10T10:11:55;4.60;;;3.40;;
69542;SDS011;56762;49.494;11.768;2023-06-10T10:14:26;4.57;;;2.83;;
69542;SDS011;56762;49.494;11.768;2023-06-10T10:16:55;4.05;;;2.88;;
69542;SDS011;56762;49.494;11.768;2023-06-10T10:19:27;4.10;;;3.35;;
69542;SDS011;56762;49.494;11.768;2023-06-10T10:22:01;4.93;;;2.97;;
69542;SDS011;56762;49.494;11.768;2023-06-10T10:24:34;4.60;;;3.30;;
69542;SDS011;56762;49.494;11.768;2023-06-10T10:27:06;4.82;;;3.13;;
69542;SDS011;56762;49.494;11.768;2023-06-10T10:29:46;4.18;;;3.15;;
69542;SDS011;56762;49.494;11.768;2023-06-10T10:32:17;3.88;;;3.03;;
69542;SDS011;56762;49.494;11.768;2023-06-10T10:34:49;4.75;;;3.00;;
69542;SDS011;56762;49.494;11.768;2023-06-10T10:37:25;4.47;;;3.07;;
69542;SDS011;56762;49.494;11.768;2023-06-10T10:39:55;5.25;;;3.28;;
69542;SDS011;56762;49.494;11.768;2023-06-10T10:42:24;4.05;;;3.03;;
69542;SDS011;56762;49.494;11.768;2023-06-10T10:44:53;4.68;;;2.90;;
69542;SDS011;56762;49.494;11.768;2023-06-10T10:47:23;5.00;;;3.10;;
69542;SDS011;56762;49.494;11.768;2023-06-10T10:49:56;4.33;;;3.00;;
69542;SDS011;56762;49.494;11.768;2023-06-10T10:52:28;4.72;;;2.95;;
69542;SDS011;56762;49.494;11.768;2023-06-10T10:55:20;3.45;;;2.30;;
69542;SDS011;56762;49.494;11.768;2023-06-10T10:57:59;4.63;;;2.72;;
69542;SDS011;56762;49.494;11.768;2023-06-10T11:00:32;3.45;;;2.83;;
69542;SDS011;56762;49.494;11.768;2023-06-10T11:03:04;4.87;;;2.80;;
69542;SDS011;56762;49.494;11.768;2023-06-10T11:05:38;3.75;;;2.70;;
69542;SDS011;56762;49.494;11.768;2023-06-10T11:08:07;3.83;;;2.63;;
69542;SDS011;56762;49.494;11.768;2023-06-10T11:10:38;3.47;;;2.53;;
69542;SDS011;56762;49.494;11.768;2023-06-10T11:13:07;3.70;;;2.70;;
69542;SDS011;56762;49.494;11.768;2023-06-10T11:15:42;3.43;;;2.63;;
69542;SDS011;56762;49.494;11.768;2023-06-10T11:18:22;3.97;;;2.55;;
69542;SDS011;56762;49.494;11.768;2023-06-10T11:20:52;3.03;;;2.20;;
69542;SDS011;56762;49.494;11.768;2023-06-10T11:23:26;4.20;;;2.30;;
69542;SDS011;56762;49.494;11.768;2023-06-10T11:26:16;3.60;;;2.30;;
69542;SDS011;56762;49.494;11.768;2023-06-10T11:29:07;3.83;;;2.70;;
69542;SDS011;56762;49.494;11.768;2023-06-10T11:31:40;3.20;;;2.33;;
69542;SDS011;56762;49.494;11.768;2023-06-10T11:34:13;3.85;;;2.50;;
69542;SDS011;56762;49.494;11.768;2023-06-10T11:36:43;4.25;;;2.83;;
69542;SDS011;56762;49.494;11.768;2023-06-10T11:39:19;3.33;;;2.65;;
69542;SDS011;56762;49.494;11.768;2023-06-10T11:41:51;3.63;;;2.40;;
69542;SDS011;56762;49.494;11.768;2023-06-10T11:44:19;3.80;;;2.60;;
69542;SDS011;56762;49.494;11.768;2023-06-10T11:46:48;3.95;;;2.42;;
69542;SDS011;56762;49.494;11.768;2023-06-10T11:49:20;4.47;;;2.22;;
69542;SDS011;56762;49.494;11.768;2023-06-10T11:51:48;3.47;;;2.30;;
69542;SDS011;56762;49.494;11.768;2023-06-10T11:54:18;4.60;;;2.30;;
69542;SDS011;56762;49.494;11.768;2023-06-10T11:56:56;4.88;;;2.70;;
69542;SDS011;56762;49.494;11.768;2023-06-10T11:59:26;3.72;;;2.25;;
69542;SDS011;56762;49.494;11.768;2023-06-10T12:01:55;3.08;;;2.08;;
69542;SDS011;56762;49.494;11.768;2023-06-10T12:04:23;3.42;;;2.10;;
69542;SDS011;56762;49.494;11.768;2023-06-10T12:06:52;3.10;;;2.20;;
69542;SDS011;56762;49.494;11.768;2023-06-10T12:09:26;2.95;;;2.00;;
69542;SDS011;56762;49.494;11.768;2023-06-10T12:12:01;2.90;;;2.10;;
69542;SDS011;56762;49.494;11.768;2023-06-10T12:14:50;3.03;;;2.25;;
69542;SDS011;56762;49.494;11.768;2023-06-10T12:17:35;2.42;;;1.65;;
69542;SDS011;56762;49.494;11.768;2023-06-10T12:20:06;2.57;;;1.67;;
69542;SDS011;56762;49.494;11.768;2023-06-10T12:22:36;3.33;;;1.95;;
69542;SDS011;56762;49.494;11.768;2023-06-10T12:25:05;2.65;;;1.98;;
69542;SDS011;56762;49.494;11.768;2023-06-10T12:27:38;3.20;;;2.10;;
69542;SDS011;56762;49.494;11.768;2023-06-10T12:30:07;4.43;;;2.15;;
69542;SDS011;56762;49.494;11.768;2023-06-10T12:32:37;4.03;;;2.10;;
69542;SDS011;56762;49.494;11.768;2023-06-10T12:35:07;3.22;;;2.30;;
69542;SDS011;56762;49.494;11.768;2023-06-10T12:37:37;5.88;;;2.10;;
69542;SDS011;56762;49.494;11.768;2023-06-10T12:40:09;2.55;;;1.88;;
69542;SDS011;56762;49.494;11.768;2023-06-10T12:42:39;2.90;;;2.05;;
69542;SDS011;56762;49.494;11.768;2023-06-10T12:45:08;2.90;;;1.97;;
69542;SDS011;56762;49.494;11.768;2023-06-10T12:47:39;2.60;;;1.60;;
69542;SDS011;56762;49.494;11.768;2023-06-10T12:50:08;2.47;;;1.70;;
69542;SDS011;56762;49.494;11.768;2023-06-10T12:52:38;2.60;;;1.80;;
69542;SDS011;56762;49.494;11.768;2023-06-10T12:55:08;2.70;;;1.90;;
69542;SDS011;56762;49.494;11.768;2023-06-10T12:57:37;2.83;;;2.00;;
69542;SDS011;56762;49.494;11.768;2023-06-10T13:00:18;3.03;;;1.80;;
69542;SDS011;56762;49.494;11.768;2023-06-10T13:02:48;2.92;;;1.83;;
69542;SDS011;56762;49.494;11.768;2023-06-10T13:05:16;2.55;;;1.67;;
69542;SDS011;56762;49.494;11.768;2023-06-10T13:07:48;2.35;;;1.33;;
69542;SDS011;56762;49.494;11.768;2023-06-10T13:10:16;1.87;;;1.20;;
69542;SDS011;56762;49.494;11.768;2023-06-10T13:12:46;2.88;;;1.90;;
69542;SDS011;56762;49.494;11.768;2023-06-10T13:15:17;3.15;;;1.85;;
69542;SDS011;56762;49.494;11.768;2023-06-10T13:17:45;3.00;;;1.83;;
69542;SDS011;56762;49.494;11.768;2023-06-10T13:20:16;3.90;;;1.80;;
69542;SDS011;56762;49.494;11.768;2023-06-10T13:22:45;2.37;;;1.83;;
69542;SDS011;56762;49.494;11.768;2023-06-10T13:25:13;2.45;;;1.58;;
69542;SDS011;56762;49.494;11.768;2023-06-10T13:27:42;3.00;;;1.70;;
69542;SDS011;56762;49.494;11.768;2023-06-10T13:30:10;3.50;;;1.90;;
69542;SDS011;56762;49.494;11.768;2023-06-10T13:32:47;2.60;;;1.80;;
69542;SDS011;56762;49.494;11.768;2023-06-10T13:35:15;3.33;;;1.90;;
69542;SDS011;56762;49.494;11.768;2023-06-10T13:37:44;2.85;;;1.85;;
69542;SDS011;56762;49.494;11.768;2023-06-10T13:40:15;4.05;;;2.30;;
69542;SDS011;56762;49.494;11.768;2023-06-10T13:42:43;2.95;;;1.90;;
69542;SDS011;56762;49.494;11.768;2023-06-10T13:45:11;3.00;;;2.10;;
69542;SDS011;56762;49.494;11.768;2023-06-10T13:47:40;4.80;;;2.30;;
69542;SDS011;56762;49.494;11.768;2023-06-10T13:50:10;4.32;;;2.92;;
69542;SDS011;56762;49.494;11.768;2023-06-10T13:52:41;3.90;;;3.03;;
69542;SDS011;56762;49.494;11.768;2023-06-10T13:55:12;4.63;;;2.88;;
69542;SDS011;56762;49.494;11.768;2023-06-10T13:57:40;5.10;;;3.10;;
69542;SDS011;56762;49.494;11.768;2023-06-10T14:00:08;5.27;;;3.57;;
69542;SDS011;56762;49.494;11.768;2023-06-10T14:02:37;5.05;;;3.72;;
69542;SDS011;56762;49.494;11.768;2023-06-10T14:05:06;5.97;;;4.07;;
69542;SDS011;56762;49.494;11.768;2023-06-10T14:07:37;4.85;;;3.63;;
69542;SDS011;56762;49.494;11.768;2023-06-10T14:10:10;5.78;;;3.95;;
69542;SDS011;56762;49.494;11.768;2023-06-10T14:12:41;5.70;;;3.80;;
69542;SDS011;56762;49.494;11.768;2023-06-10T14:15:09;5.35;;;4.00;;
69542;SDS011;56762;49.494;11.768;2023-06-10T14:17:38;6.22;;;4.28;;
69542;SDS011;56762;49.494;11.768;2023-06-10T14:20:08;5.88;;;4.68;;
69542;SDS011;56762;49.494;11.768;2023-06-10T14:22:38;5.90;;;4.60;;
69542;SDS011;56762;49.494;11.768;2023-06-10T14:25:06;6.67;;;4.80;;
69542;SDS011;56762;49.494;11.768;2023-06-10T14:27:36;6.38;;;5.13;;
69542;SDS011;56762;49.494;11.768;2023-06-10T14:30:04;6.75;;;5.03;;
69542;SDS011;56762;49.494;11.768;2023-06-10T14:32:37;7.90;;;4.97;;
69542;SDS011;56762;49.494;11.768;2023-06-10T14:35:06;7.72;;;5.18;;
69542;SDS011;56762;49.494;11.768;2023-06-10T14:37:36;8.07;;;5.67;;
69542;SDS011;56762;49.494;11.768;2023-06-10T14:40:06;6.32;;;5.30;;
69542;SDS011;56762;49.494;11.768;2023-06-10T14:42:37;6.22;;;4.72;;
69542;SDS011;56762;49.494;11.768;2023-06-10T14:45:08;5.72;;;4.72;;
69542;SDS011;56762;49.494;11.768;2023-06-10T14:47:37;6.18;;;4.40;;